sensor_id;sensor_type;location;lat;lon;timestamp;P1;durP1;ratioP1;P2;durP2;ratioP2
51491;SDS011;37569;50.548;8.778;2024-03-23T00:55:07;26.7;;;16.4;;
51491;SDS011;37569;50.548;8.778;2024-03-23T01:00:07;24.7;;;15.4;;
51491;SDS011;37569;50.548;8.778;2024-03-23T01:05:08;24.4;;;15;;
51491;SDS011;37569;50.548;8.778;2024-03-23T01:10:08;25.4;;;15.9;;
51491;SDS011;37569;50.548;8.778;2024-03-23T01:15:08;30.1;;;17.1;;
51491;SDS011;37569;50.548;8.778;2024-03-23T01:20:09;33.8;;;19.2;;
51491;SDS011;37569;50.548;8.778;2024-03-23T01:25:09;35.4;;;21;;
51491;SDS011;37569;50.548;8.778;2024-03-23T01:30:10;35;;;20.8;;
51491;SDS011;37569;50.548;8.778;2024-03-23T01:35:10;34.9;;;21.1;;
51491;SDS011;37569;50.548;8.778;2024-03-23T01:40:11;36.2;;;20.8;;
51491;SDS011;37569;50.548;8.778;2024-03-23T01:45:11;33.7;;;20.2;;
51491;SDS011;37569;50.548;8.778;2024-03-23T01:50:11;39.2;;;21.8;;
51491;SDS011;37569;50.548;8.778;2024-03-23T01:55:12;39.2;;;22.9;;
51491;SDS011;37569;50.548;8.778;2024-03-23T02:00:13;40.9;;;22.5;;
51491;SDS011;37569;50.548;8.778;2024-03-23T02:05:13;41.3;;;22.6;;
51491;SDS011;37569;50.548;8.778;2024-03-23T02:10:13;39.9;;;22.4;;
51491;SDS011;37569;50.548;8.778;2024-03-23T02:15:13;38.7;;;21.9;;
51491;SDS011;37569;50.548;8.778;2024-03-23T02:20:14;40.9;;;22.4;;
51491;SDS011;37569;50.548;8.778;2024-03-23T02:25:14;39.5;;;22.6;;
51491;SDS011;37569;50.548;8.778;2024-03-23T02:30:15;37.3;;;21.1;;
51491;SDS011;37569;50.548;8.778;2024-03-23T02:35:15;37.4;;;21.8;;
51491;SDS011;37569;50.548;8.778;2024-03-23T02:40:15;38;;;22;;
51491;SDS011;37569;50.548;8.778;2024-03-23T02:45:16;37.3;;;21.1;;
51491;SDS011;37569;50.548;8.778;2024-03-23T02:50:16;35.6;;;21.5;;
51491;SDS011;37569;50.548;8.778;2024-03-23T02:55:17;36.9;;;20.9;;
51491;SDS011;37569;50.548;8.778;2024-03-23T03:00:17;36.1;;;22.1;;
51491;SDS011;37569;50.548;8.778;2024-03-23T03:05:17;35.1;;;20.3;;
51491;SDS011;37569;50.548;8.778;2024-03-23T03:10:18;39.1;;;22.3;;
51491;SDS011;37569;50.548;8.778;2024-03-23T03:15:18;39.3;;;22.7;;
51491;SDS011;37569;50.548;8.778;2024-03-23T03:20:18;42.6;;;23.1;;
51491;SDS011;37569;50.548;8.778;2024-03-23T03:25:19;39.9;;;23.3;;
51491;SDS011;37569;50.548;8.778;2024-03-23T03:30:19;42.4;;;23.6;;
51491;SDS011;37569;50.548;8.778;2024-03-23T03:35:20;40.3;;;22.9;;
51491;SDS011;37569;50.548;8.778;2024-03-23T03:40:20;40.5;;;22.6;;
51491;SDS011;37569;50.548;8.778;2024-03-23T03:45:21;40.2;;;23.1;;
51491;SDS011;37569;50.548;8.778;2024-03-23T03:50:21;40.9;;;22.4;;
51491;SDS011;37569;50.548;8.778;2024-03-23T03:55:22;44.5;;;24;;
51491;SDS011;37569;50.548;8.778;2024-03-23T04:00:22;44.1;;;23.4;;
51491;SDS011;37569;50.548;8.778;2024-03-23T04:05:22;47.1;;;24.9;;
51491;SDS011;37569;50.548;8.778;2024-03-23T04:10:23;47.4;;;24.4;;
51491;SDS011;37569;50.548;8.778;2024-03-23T04:15:23;44.3;;;22.6;;
51491;SDS011;37569;50.548;8.778;2024-03-23T04:20:24;30;;;17.4;;
51491;SDS011;37569;50.548;8.778;2024-03-23T04:25:24;33.9;;;17.2;;
51491;SDS011;37569;50.548;8.778;2024-03-23T04:30:25;17;;;10.6;;
51491;SDS011;37569;50.548;8.778;2024-03-23T04:35:25;13.7;;;8.2;;
51491;SDS011;37569;50.548;8.778;2024-03-23T04:40:25;11;;;7.5;;
51491;SDS011;37569;50.548;8.778;2024-03-23T04:45:26;7.5;;;4.3;;
51491;SDS011;37569;50.548;8.778;2024-03-23T04:50:26;4.4;;;2.4;;
51491;SDS011;37569;50.548;8.778;2024-03-23T04:55:26;2.8;;;1.8;;
51491;SDS011;37569;50.548;8.778;2024-03-23T05:00:27;2.5;;;1.6;;
51491;SDS011;37569;50.548;8.778;2024-03-23T05:05:27;2.3;;;1.6;;
51491;SDS011;37569;50.548;8.778;2024-03-23T05:10:28;2.3;;;1.5;;
51491;SDS011;37569;50.548;8.778;2024-03-23T05:15:28;2.3;;;1.9;;
51491;SDS011;37569;50.548;8.778;2024-03-23T05:20:28;2.8;;;1.7;;
51491;SDS011;37569;50.548;8.778;2024-03-23T05:25:29;2.8;;;1.9;;
51491;SDS011;37569;50.548;8.778;2024-03-23T05:30:29;1.7;;;1.3;;
51491;SDS011;37569;50.548;8.778;2024-03-23T05:35:29;1.2;;;1.1;;
51491;SDS011;37569;50.548;8.778;2024-03-23T05:40:30;1;;;0.9;;
51491;SDS011;37569;50.548;8.778;2024-03-23T05:45:30;1.1;;;0.8;;
51491;SDS011;37569;50.548;8.778;2024-03-23T05:50:31;0.9;;;0.9;;
51491;SDS011;37569;50.548;8.778;2024-03-23T05:55:31;0.7;;;0.7;;
51491;SDS011;37569;50.548;8.778;2024-03-23T06:00:31;1.1;;;0.7;;
51491;SDS011;37569;50.548;8.778;2024-03-23T06:05:32;0.8;;;0.7;;
51491;SDS011;37569;50.548;8.778;2024-03-23T06:10:32;0.9;;;0.9;;
51491;SDS011;37569;50.548;8.778;2024-03-23T06:15:32;2.2;;;0.7;;
51491;SDS011;37569;50.548;8.778;2024-03-23T06:20:33;2.1;;;1.1;;
51491;SDS011;37569;50.548;8.778;2024-03-23T06:25:33;2.8;;;1.2;;
51491;SDS011;37569;50.548;8.778;2024-03-23T06:30:34;3.3;;;2;;
51491;SDS011;37569;50.548;8.778;2024-03-23T06:35:34;1.9;;;1;;
51491;SDS011;37569;50.548;8.778;2024-03-23T06:40:35;1.2;;;0.8;;
51491;SDS011;37569;50.548;8.778;2024-03-23T06:45:35;1.1;;;0.9;;
51491;SDS011;37569;50.548;8.778;2024-03-23T06:50:35;1.1;;;0.8;;
51491;SDS011;37569;50.548;8.778;2024-03-23T06:55:35;2.1;;;1.1;;
51491;SDS011;37569;50.548;8.778;2024-03-23T07:00:36;1.2;;;1;;
51491;SDS011;37569;50.548;8.778;2024-03-23T07:05:36;2.5;;;0.9;;
51491;SDS011;37569;50.548;8.778;2024-03-23T07:10:38;1.4;;;1.3;;
51491;SDS011;37569;50.548;8.778;2024-03-23T07:15:37;2.2;;;1.4;;
51491;SDS011;37569;50.548;8.778;2024-03-23T07:20:37;2.8;;;1.4;;
51491;SDS011;37569;50.548;8.778;2024-03-23T07:25:38;2.1;;;1.4;;
51491;SDS011;37569;50.548;8.778;2024-03-23T07:30:38;3.8;;;1.4;;
51491;SDS011;37569;50.548;8.778;2024-03-23T07:35:39;3;;;1.4;;
51491;SDS011;37569;50.548;8.778;2024-03-23T07:40:39;3.5;;;1.5;;
51491;SDS011;37569;50.548;8.778;2024-03-23T07:45:39;5.1;;;1.6;;
51491;SDS011;37569;50.548;8.778;2024-03-23T07:50:40;3.3;;;1.7;;
51491;SDS011;37569;50.548;8.778;2024-03-23T07:55:40;3.7;;;1.9;;
51491;SDS011;37569;50.548;8.778;2024-03-23T08:00:41;3.7;;;2.2;;
51491;SDS011;37569;50.548;8.778;2024-03-23T08:05:41;4.3;;;2.2;;
51491;SDS011;37569;50.548;8.778;2024-03-23T08:10:49;4.9;;;2.4;;
51491;SDS011;37569;50.548;8.778;2024-03-23T08:15:42;5;;;3.3;;
51491;SDS011;37569;50.548;8.778;2024-03-23T08:20:42;8.7;;;3.1;;
51491;SDS011;37569;50.548;8.778;2024-03-23T08:25:43;7.1;;;3.5;;
51491;SDS011;37569;50.548;8.778;2024-03-23T08:30:43;7.8;;;3.5;;
51491;SDS011;37569;50.548;8.778;2024-03-23T08:35:52;6.9;;;4.1;;
51491;SDS011;37569;50.548;8.778;2024-03-23T08:40:44;7.3;;;4.5;;
51491;SDS011;37569;50.548;8.778;2024-03-23T08:45:44;10;;;4.4;;
51491;SDS011;37569;50.548;8.778;2024-03-23T08:50:45;7.2;;;4.7;;
51491;SDS011;37569;50.548;8.778;2024-03-23T08:55:52;12;;;5.3;;
51491;SDS011;37569;50.548;8.778;2024-03-23T09:00:46;11.5;;;5.6;;
51491;SDS011;37569;50.548;8.778;2024-03-23T09:05:46;11.2;;;5.5;;
51491;SDS011;37569;50.548;8.778;2024-03-23T09:10:47;11.1;;;5.1;;
51491;SDS011;37569;50.548;8.778;2024-03-23T09:15:47;10.2;;;5.4;;
51491;SDS011;37569;50.548;8.778;2024-03-23T09:20:47;10.7;;;5.3;;
51491;SDS011;37569;50.548;8.778;2024-03-23T09:25:48;9.9;;;5.2;;
51491;SDS011;37569;50.548;8.778;2024-03-23T09:30:48;8.9;;;4.1;;
51491;SDS011;37569;50.548;8.778;2024-03-23T09:35:49;12;;;4.7;;
51491;SDS011;37569;50.548;8.778;2024-03-23T09:40:50;8.3;;;3.9;;
51491;SDS011;37569;50.548;8.778;2024-03-23T09:45:50;10;;;3.8;;
51491;SDS011;37569;50.548;8.778;2024-03-23T09:50:50;7.8;;;4;;
51491;SDS011;37569;50.548;8.778;2024-03-23T09:55:50;10.4;;;3.6;;
51491;SDS011;37569;50.548;8.778;2024-03-23T10:00:51;11.5;;;3.9;;
51491;SDS011;37569;50.548;8.778;2024-03-23T10:06:00;9.4;;;3.4;;
51491;SDS011;37569;50.548;8.778;2024-03-23T10:10:52;7.6;;;2.7;;
51491;SDS011;37569;50.548;8.778;2024-03-23T10:15:56;8.1;;;2.9;;
51491;SDS011;37569;50.548;8.778;2024-03-23T10:21:07;7.1;;;2.7;;
51491;SDS011;37569;50.548;8.778;2024-03-23T10:25:53;9;;;2.8;;
51491;SDS011;37569;50.548;8.778;2024-03-23T10:30:54;7.7;;;2.7;;
51491;SDS011;37569;50.548;8.778;2024-03-23T10:35:54;6.3;;;2;;
51491;SDS011;37569;50.548;8.778;2024-03-23T10:40:55;4.3;;;1.8;;
51491;SDS011;37569;50.548;8.778;2024-03-23T10:45:55;4.9;;;1.6;;
51491;SDS011;37569;50.548;8.778;2024-03-23T10:50:56;3.3;;;1.7;;
51491;SDS011;37569;50.548;8.778;2024-03-23T10:55:56;3.3;;;1.9;;
51491;SDS011;37569;50.548;8.778;2024-03-23T11:00:56;5.1;;;2;;
51491;SDS011;37569;50.548;8.778;2024-03-23T11:05:57;5.6;;;1.9;;
51491;SDS011;37569;50.548;8.778;2024-03-23T11:11:29;5.5;;;1.8;;
51491;SDS011;37569;50.548;8.778;2024-03-23T11:16:01;7.7;;;2.6;;
51491;SDS011;37569;50.548;8.778;2024-03-23T11:20:58;6.5;;;2.4;;
51491;SDS011;37569;50.548;8.778;2024-03-23T11:25:59;4.6;;;2.2;;
51491;SDS011;37569;50.548;8.778;2024-03-23T11:30:59;5.3;;;2.4;;
51491;SDS011;37569;50.548;8.778;2024-03-23T11:36:00;6.3;;;2.2;;
51491;SDS011;37569;50.548;8.778;2024-03-23T11:41:02;5;;;2.4;;
51491;SDS011;37569;50.548;8.778;2024-03-23T11:46:01;4.7;;;1.9;;
51491;SDS011;37569;50.548;8.778;2024-03-23T11:51:02;5.2;;;2.1;;
51491;SDS011;37569;50.548;8.778;2024-03-23T11:56:02;4.6;;;1.7;;
51491;SDS011;37569;50.548;8.778;2024-03-23T12:01:03;4.1;;;1.6;;
51491;SDS011;37569;50.548;8.778;2024-03-23T12:06:03;4;;;2;;
51491;SDS011;37569;50.548;8.778;2024-03-23T12:11:04;4.4;;;1.8;;
51491;SDS011;37569;50.548;8.778;2024-03-23T12:16:12;2.4;;;1.4;;
51491;SDS011;37569;50.548;8.778;2024-03-23T12:21:04;3.3;;;1.7;;
51491;SDS011;37569;50.548;8.778;2024-03-23T12:26:05;4.2;;;2.1;;
51491;SDS011;37569;50.548;8.778;2024-03-23T12:31:05;4.6;;;2.1;;
51491;SDS011;37569;50.548;8.778;2024-03-23T12:36:06;4.5;;;2.1;;
51491;SDS011;37569;50.548;8.778;2024-03-23T12:41:06;6.1;;;2.3;;
51491;SDS011;37569;50.548;8.778;2024-03-23T12:46:07;5;;;2;;
51491;SDS011;37569;50.548;8.778;2024-03-23T12:51:07;5.2;;;2.2;;
51491;SDS011;37569;50.548;8.778;2024-03-23T12:56:11;4.5;;;1.9;;
51491;SDS011;37569;50.548;8.778;2024-03-23T13:01:08;5;;;1.7;;
51491;SDS011;37569;50.548;8.778;2024-03-23T13:06:09;3.6;;;1.7;;
51491;SDS011;37569;50.548;8.778;2024-03-23T13:11:09;4.7;;;1.9;;
51491;SDS011;37569;50.548;8.778;2024-03-23T13:16:10;6.6;;;2.1;;
51491;SDS011;37569;50.548;8.778;2024-03-23T13:21:10;4.1;;;1.8;;
51491;SDS011;37569;50.548;8.778;2024-03-23T13:26:11;3.1;;;1.6;;
51491;SDS011;37569;50.548;8.778;2024-03-23T13:31:11;4.3;;;1.8;;
51491;SDS011;37569;50.548;8.778;2024-03-23T13:36:12;2.4;;;1.6;;
51491;SDS011;37569;50.548;8.778;2024-03-23T13:41:12;2.1;;;1.1;;
51491;SDS011;37569;50.548;8.778;2024-03-23T13:46:13;2.9;;;1.5;;
51491;SDS011;37569;50.548;8.778;2024-03-23T13:51:13;1.3;;;1.2;;
51491;SDS011;37569;50.548;8.778;2024-03-23T13:56:14;1.6;;;1.2;;
51491;SDS011;37569;50.548;8.778;2024-03-23T14:01:14;3.6;;;1.3;;
51491;SDS011;37569;50.548;8.778;2024-03-23T14:06:15;2.4;;;1.4;;
51491;SDS011;37569;50.548;8.778;2024-03-23T14:11:15;1.8;;;1.3;;
51491;SDS011;37569;50.548;8.778;2024-03-23T14:16:16;2;;;1.2;;
51491;SDS011;37569;50.548;8.778;2024-03-23T14:21:16;2.6;;;1.4;;
51491;SDS011;37569;50.548;8.778;2024-03-23T14:26:17;3.2;;;1.5;;
51491;SDS011;37569;50.548;8.778;2024-03-23T14:31:17;3;;;1.5;;
51491;SDS011;37569;50.548;8.778;2024-03-23T14:36:18;2;;;1.4;;
51491;SDS011;37569;50.548;8.778;2024-03-23T14:41:18;2;;;1.4;;
51491;SDS011;37569;50.548;8.778;2024-03-23T14:46:19;2.7;;;1.5;;
51491;SDS011;37569;50.548;8.778;2024-03-23T14:51:19;4.4;;;1.7;;
51491;SDS011;37569;50.548;8.778;2024-03-23T14:56:20;4.6;;;1.7;;
51491;SDS011;37569;50.548;8.778;2024-03-23T15:01:20;3.1;;;1.9;;
51491;SDS011;37569;50.548;8.778;2024-03-23T15:06:21;3.1;;;1.9;;
51491;SDS011;37569;50.548;8.778;2024-03-23T15:11:21;4.6;;;2.2;;
51491;SDS011;37569;50.548;8.778;2024-03-23T15:16:22;3.4;;;1.9;;
51491;SDS011;37569;50.548;8.778;2024-03-23T15:21:22;2.9;;;1.7;;
51491;SDS011;37569;50.548;8.778;2024-03-23T15:26:22;4.3;;;2.1;;
51491;SDS011;37569;50.548;8.778;2024-03-23T15:31:23;3.3;;;2.2;;
51491;SDS011;37569;50.548;8.778;2024-03-23T15:36:23;4.1;;;2.2;;
51491;SDS011;37569;50.548;8.778;2024-03-23T15:41:24;4.3;;;1.9;;
51491;SDS011;37569;50.548;8.778;2024-03-23T15:46:24;3.6;;;2.2;;
51491;SDS011;37569;50.548;8.778;2024-03-23T15:51:25;4.1;;;2.3;;
51491;SDS011;37569;50.548;8.778;2024-03-23T15:56:25;3.9;;;2.3;;
51491;SDS011;37569;50.548;8.778;2024-03-23T16:01:26;5.5;;;2.6;;
51491;SDS011;37569;50.548;8.778;2024-03-23T16:06:26;5.6;;;2.6;;
51491;SDS011;37569;50.548;8.778;2024-03-23T16:11:27;4.3;;;2.2;;
51491;SDS011;37569;50.548;8.778;2024-03-23T16:16:27;3.4;;;2.1;;
51491;SDS011;37569;50.548;8.778;2024-03-23T16:21:28;4.3;;;2.1;;
51491;SDS011;37569;50.548;8.778;2024-03-23T16:26:28;5.2;;;2.3;;
51491;SDS011;37569;50.548;8.778;2024-03-23T16:31:29;4.6;;;1.9;;
51491;SDS011;37569;50.548;8.778;2024-03-23T16:36:29;2.9;;;2.1;;
51491;SDS011;37569;50.548;8.778;2024-03-23T16:41:30;3.7;;;2.1;;
51491;SDS011;37569;50.548;8.778;2024-03-23T16:46:30;5.2;;;3.6;;
51491;SDS011;37569;50.548;8.778;2024-03-23T16:51:30;2.4;;;1.9;;
51491;SDS011;37569;50.548;8.778;2024-03-23T16:56:31;3;;;1.9;;
51491;SDS011;37569;50.548;8.778;2024-03-23T17:01:31;3.5;;;2.3;;
51491;SDS011;37569;50.548;8.778;2024-03-23T17:06:32;4.4;;;2;;
51491;SDS011;37569;50.548;8.778;2024-03-23T17:11:32;4.1;;;2;;
51491;SDS011;37569;50.548;8.778;2024-03-23T17:16:33;2.4;;;1.9;;
51491;SDS011;37569;50.548;8.778;2024-03-23T17:21:33;3.8;;;2.2;;
51491;SDS011;37569;50.548;8.778;2024-03-23T17:26:33;3.2;;;1.8;;
51491;SDS011;37569;50.548;8.778;2024-03-23T17:31:34;3.6;;;1.6;;
51491;SDS011;37569;50.548;8.778;2024-03-23T17:36:34;3.9;;;1.8;;
51491;SDS011;37569;50.548;8.778;2024-03-23T17:41:35;2;;;1.5;;
51491;SDS011;37569;50.548;8.778;2024-03-23T17:46:35;2.5;;;1.5;;
51491;SDS011;37569;50.548;8.778;2024-03-23T17:51:35;2.4;;;1.6;;
51491;SDS011;37569;50.548;8.778;2024-03-23T17:56:36;2.6;;;1.8;;
51491;SDS011;37569;50.548;8.778;2024-03-23T18:01:36;4.2;;;1.8;;
51491;SDS011;37569;50.548;8.778;2024-03-23T18:06:37;3.7;;;1.8;;
51491;SDS011;37569;50.548;8.778;2024-03-23T18:11:37;2.3;;;1.6;;
51491;SDS011;37569;50.548;8.778;2024-03-23T18:16:37;2.9;;;1.6;;
51491;SDS011;37569;50.548;8.778;2024-03-23T18:21:38;3.7;;;1.7;;
51491;SDS011;37569;50.548;8.778;2024-03-23T18:26:38;2.3;;;1.6;;
51491;SDS011;37569;50.548;8.778;2024-03-23T18:31:38;2.5;;;1.7;;
51491;SDS011;37569;50.548;8.778;2024-03-23T18:36:39;3;;;1.4;;
51491;SDS011;37569;50.548;8.778;2024-03-23T18:41:39;2.4;;;1.3;;
51491;SDS011;37569;50.548;8.778;2024-03-23T18:46:39;2;;;1.3;;
51491;SDS011;37569;50.548;8.778;2024-03-23T18:51:40;3.1;;;1.5;;
51491;SDS011;37569;50.548;8.778;2024-03-23T18:56:40;2.4;;;1.7;;
51491;SDS011;37569;50.548;8.778;2024-03-23T19:01:40;2.2;;;1.8;;
51491;SDS011;37569;50.548;8.778;2024-03-23T19:06:40;3.3;;;2;;
51491;SDS011;37569;50.548;8.778;2024-03-23T19:11:41;3.9;;;1.9;;
51491;SDS011;37569;50.548;8.778;2024-03-23T19:16:41;3.2;;;1.6;;
51491;SDS011;37569;50.548;8.778;2024-03-23T19:21:41;3.5;;;1.9;;
51491;SDS011;37569;50.548;8.778;2024-03-23T19:26:42;2.6;;;1.8;;
51491;SDS011;37569;50.548;8.778;2024-03-23T19:31:42;3.3;;;1.3;;
51491;SDS011;37569;50.548;8.778;2024-03-23T19:36:42;2.5;;;1.6;;
51491;SDS011;37569;50.548;8.778;2024-03-23T19:41:42;2.7;;;1.7;;
51491;SDS011;37569;50.548;8.778;2024-03-23T19:46:43;2.3;;;1.6;;
51491;SDS011;37569;50.548;8.778;2024-03-23T19:51:43;3;;;1.6;;
51491;SDS011;37569;50.548;8.778;2024-03-23T19:56:43;2.7;;;1.4;;
51491;SDS011;37569;50.548;8.778;2024-03-23T20:01:43;3.1;;;1.7;;
51491;SDS011;37569;50.548;8.778;2024-03-23T20:06:44;2.9;;;1.6;;
51491;SDS011;37569;50.548;8.778;2024-03-23T20:11:44;4;;;1.6;;
51491;SDS011;37569;50.548;8.778;2024-03-23T20:16:44;3;;;1.5;;
51491;SDS011;37569;50.548;8.778;2024-03-23T20:21:45;3;;;1.5;;
51491;SDS011;37569;50.548;8.778;2024-03-23T20:26:45;3.2;;;1.5;;
51491;SDS011;37569;50.548;8.778;2024-03-23T20:31:45;2.6;;;1.7;;
51491;SDS011;37569;50.548;8.778;2024-03-23T20:36:45;3;;;1.6;;
51491;SDS011;37569;50.548;8.778;2024-03-23T20:41:46;2.9;;;1.7;;
51491;SDS011;37569;50.548;8.778;2024-03-23T20:46:46;3.8;;;1.7;;
51491;SDS011;37569;50.548;8.778;2024-03-23T20:51:46;2.6;;;1.8;;
51491;SDS011;37569;50.548;8.778;2024-03-23T20:56:46;3.6;;;1.5;;
51491;SDS011;37569;50.548;8.778;2024-03-23T21:01:47;3.5;;;1.8;;
51491;SDS011;37569;50.548;8.778;2024-03-23T21:06:47;2.6;;;2;;
51491;SDS011;37569;50.548;8.778;2024-03-23T21:11:47;2.7;;;2.1;;
51491;SDS011;37569;50.548;8.778;2024-03-23T21:16:48;2.9;;;2;;
51491;SDS011;37569;50.548;8.778;2024-03-23T21:21:48;2.8;;;1.7;;
51491;SDS011;37569;50.548;8.778;2024-03-23T21:26:48;3.3;;;2.1;;
51491;SDS011;37569;50.548;8.778;2024-03-23T21:31:48;2.4;;;1.7;;
51491;SDS011;37569;50.548;8.778;2024-03-23T21:36:49;3.6;;;2.3;;
51491;SDS011;37569;50.548;8.778;2024-03-23T21:41:49;4.4;;;2.1;;
51491;SDS011;37569;50.548;8.778;2024-03-23T21:46:49;3.1;;;2.1;;
51491;SDS011;37569;50.548;8.778;2024-03-23T21:51:50;3.5;;;2;;
51491;SDS011;37569;50.548;8.778;2024-03-23T21:56:50;3;;;1.8;;
51491;SDS011;37569;50.548;8.778;2024-03-23T22:01:50;3;;;2;;
51491;SDS011;37569;50.548;8.778;2024-03-23T22:06:50;2.5;;;1.8;;
51491;SDS011;37569;50.548;8.778;2024-03-23T22:11:51;2.9;;;2.1;;
51491;SDS011;37569;50.548;8.778;2024-03-23T22:16:51;2.7;;;1.8;;
51491;SDS011;37569;50.548;8.778;2024-03-23T22:21:51;2.8;;;2;;
51491;SDS011;37569;50.548;8.778;2024-03-23T22:26:51;3.6;;;2.7;;
51491;SDS011;37569;50.548;8.778;2024-03-23T22:31:52;5.5;;;3.2;;
51491;SDS011;37569;50.548;8.778;2024-03-23T22:36:52;4.5;;;3.1;;
51491;SDS011;37569;50.548;8.778;2024-03-23T22:41:52;3.1;;;1.7;;
51491;SDS011;37569;50.548;8.778;2024-03-23T22:46:52;3.6;;;1.9;;
51491;SDS011;37569;50.548;8.778;2024-03-23T22:51:53;3.3;;;1.9;;
51491;SDS011;37569;50.548;8.778;2024-03-23T22:56:53;2.1;;;1.5;;
51491;SDS011;37569;50.548;8.778;2024-03-23T23:01:53;3.8;;;1.7;;
51491;SDS011;37569;50.548;8.778;2024-03-23T23:06:53;2.3;;;1.6;;
51491;SDS011;37569;50.548;8.778;2024-03-23T23:11:54;1.7;;;1.6;;
51491;SDS011;37569;50.548;8.778;2024-03-23T23:16:54;3.7;;;1.8;;
51491;SDS011;37569;50.548;8.778;2024-03-23T23:21:54;3;;;1.8;;
51491;SDS011;37569;50.548;8.778;2024-03-23T23:26:55;3.6;;;1.7;;
51491;SDS011;37569;50.548;8.778;2024-03-23T23:31:55;3.4;;;1.9;;
51491;SDS011;37569;50.548;8.778;2024-03-23T23:36:55;2.8;;;1.9;;
51491;SDS011;37569;50.548;8.778;2024-03-23T23:41:55;2.5;;;1.8;;
51491;SDS011;37569;50.548;8.778;2024-03-23T23:46:56;3.5;;;1.8;;
51491;SDS011;37569;50.548;8.778;2024-03-23T23:51:56;3.4;;;1.8;;
51491;SDS011;37569;50.548;8.778;2024-03-23T23:56:56;4.8;;;2.8;;
